KAXV/AXV METAR and TAF weather

Enter ICAO airport designator
Station Type Date Time Source
KAXV METAR 2018/10/21 05:55 UTC NOAA

KAXV 210555Z AUTO 29007KT 10SM CLR 01/00 A3022 RMK AO2


Station Type Date Time Source
KAXV Decoded METAR 2018/10/21 05:55 UTC NOAA

Station name not available
Oct 21, 2018 - 01:55 AM EDT / 2018.10.21 0555 UTC
Wind: from the WNW (290 degrees) at 8 MPH (7 KT):0
Visibility: 10 mile(s):0
Sky conditions: clear
Temperature: 33 F (1 C)
Windchill: 26 F (-3 C):1
Dew Point: 32 F (0 C)
Relative Humidity: 93%
Pressure (altimeter): 30.22 in. Hg (1023 hPa)
ob: KAXV 210555Z AUTO 29007KT 10SM CLR 01/00 A3022 RMK AO2
cycle: 6

Station Type Date Time Source
KAXV TAF UTC NOAA

Error!


Example: see airport list